Latest Weather Observations for West Wyalong

IDN60801

Issued at 6:23 pm EST Saturday 9 May 2026 (issued every 10 minutes, with the page automatically refreshed every 10 minutes)

About weather observations | Map of weather stations | Latest weather observations for NSW | Other Formats
Station Details ID: 050017 Name: WEST WYALONG AIRPORT AWS Lat: -33.94 Lon: 147.20 Height: 257.0 m
Data from the previous 72 hours. | See also: Recent months at West Wyalong
Date/Time
EST
Temp
°C
App
Temp
°C
Dew
Point
°C
Rel
Hum
%
Delta-T
°C
Wind Press
QNH
hPa
Press
MSL
hPa
Rain since
9am
mm
Dir  Spd
km/h
Gust
km/h
Spd
kts
Gust
kts
09/06:00pm 12.9 10.8 6.5 65 3.1 WSW 7 7 4 4 1025.8 1025.8 0.0
09/05:30pm 15.0 12.9 6.8 58 4.1 SW 7 9 4 5 1025.4 1025.4 0.0
09/05:00pm 17.2 15.1 6.7 50 5.2 SSW 7 9 4 5 1025.2 1025.2 0.0
09/04:30pm 18.2 15.3 6.7 47 5.8 SSW 11 13 6 7 1024.8 1024.9 0.0
09/04:00pm 18.8 16.4 6.9 46 6.0 SW 9 15 5 8 1024.7 1024.8 0.0
09/03:30pm 18.5 15.7 7.0 47 5.8 S 11 17 6 9 1024.8 1024.9 0.0
09/03:00pm 19.0 16.2 7.1 46 6.1 S 11 17 6 9 1024.7 1024.8 0.0
09/02:30pm 18.9 16.3 7.7 48 5.8 S 11 19 6 10 1024.8 1024.9 0.0
09/02:00pm 18.3 15.2 7.4 49 5.6 SSW 13 19 7 10 1024.8 1024.9 0.0
09/01:30pm 18.0 15.0 7.7 51 5.3 S 13 19 7 10 1024.9 1025.0 0.0
09/01:00pm 18.0 15.1 8.3 53 5.0 SSW 13 20 7 11 1025.4 1025.4 0.0
09/12:30pm 17.4 14.5 8.0 54 4.8 S 13 20 7 11 1025.7 1025.7 0.0
09/12:00pm 16.2 13.1 7.4 56 4.4 SSW 13 20 7 11 1026.3 1026.3 0.0
09/11:30am 15.7 12.7 7.5 58 4.1 SSW 13 20 7 11 1026.6 1026.6 0.0
09/11:00am 14.9 11.9 7.7 62 3.6 SW 13 19 7 10 1026.8 1026.8 0.0
09/10:30am 14.3 11.9 8.5 68 3.0 SSW 11 17 6 9 1026.8 1026.8 0.0
09/10:00am 13.4 10.6 8.5 72 2.5 S 13 17 7 9 1026.9 1026.9 0.0
09/09:30am 12.5 9.7 8.4 76 2.1 SW 13 17 7 9 1026.9 1026.9 0.0
09/09:00am 11.2 8.3 8.2 82 1.5 SW 13 19 7 10 1026.7 1026.7 0.0
09/08:30am 10.3 7.4 8.2 87 1.0 WSW 13 17 7 9 1026.5 1026.5 0.0
09/08:00am 9.0 7.4 7.8 92 0.6 W 6 9 3 5 1026.2 1026.2 0.0
09/07:30am 7.4 5.0 6.8 96 0.3 N 9 11 5 6 1026.0 1026.0 0.0
09/07:00am 6.2 3.5 5.6 96 0.3 W 9 9 5 5 1025.7 1025.7 0.0
09/06:30am 5.7 2.9 5.1 96 0.3 WSW 9 11 5 6 1025.3 1025.3 0.0
09/06:00am 5.0 2.4 4.1 94 0.4 WSW 7 9 4 5 1024.9 1025.0 0.0
09/05:30am 6.1 3.9 5.5 96 0.3 W 6 9 3 5 1024.7 1024.8 0.0
09/05:00am 5.4 3.0 4.4 93 0.4 W 6 7 3 4 1024.7 1024.8 0.0
09/04:30am 6.2 3.8 5.2 93 0.4 W 7 9 4 5 1024.7 1024.8 0.0
09/04:00am 6.5 3.7 5.3 92 0.5 WSW 9 11 5 6 1024.4 1024.4 0.0
09/03:30am 7.4 5.2 6.2 92 0.6 WSW 7 11 4 6 1024.6 1024.7 0.0
09/03:00am 7.0 4.0 5.8 92 0.5 WSW 11 13 6 7 1024.6 1024.7 0.0
09/02:30am 7.8 4.9 6.3 90 0.7 WSW 11 13 6 7 1024.6 1024.7 0.0
09/02:00am 7.5 4.9 6.1 91 0.6 W 9 11 5 6 1024.7 1024.8 0.0
09/01:30am 7.6 4.9 5.7 88 0.9 WSW 9 11 5 6 1024.7 1024.8 0.0
09/01:00am 8.6 5.7 6.7 88 0.9 W 11 13 6 7 1024.6 1024.7 0.0
09/12:30am 8.4 5.5 6.4 87 0.9 W 11 13 6 7 1024.6 1024.7 0.0
09/12:00am 8.8 6.6 6.4 85 1.1 W 7 9 4 5 1024.7 1024.8 0.0
 
Date/Time
EST
Temp
°C
App
Temp
°C
Dew
Point
°C
Rel
Hum
%
Delta-T
°C
Wind Press
QNH
hPa
Press
MSL
hPa
Rain since
9am
mm
Dir  Spd
km/h
Gust
km/h
Spd
kts
Gust
kts
08/11:30pm 9.3 6.4 6.4 82 1.4 W 11 13 6 7 1024.6 1024.7 0.0
08/11:00pm 10.5 8.4 6.6 77 1.8 WNW 7 7 4 4 1024.8 1024.9 0.0
08/10:30pm 11.2 8.4 6.9 75 2.1 W 11 13 6 7 1024.9 1025.0 0.0
08/10:00pm 11.1 8.7 7.2 77 1.9 WNW 9 15 5 8 1025.0 1025.1 0.0
08/09:30pm 9.0 7.1 6.6 85 1.1 W 6 7 3 4 1025.2 1025.2 0.0
08/09:00pm 9.1 6.5 6.2 82 1.3 WSW 9 13 5 7 1024.6 1024.7 0.0
08/08:30pm 8.4 5.8 6.0 85 1.1 W 9 13 5 7 1024.6 1024.7 0.0
08/08:00pm 9.1 6.8 5.8 80 1.5 WNW 7 9 4 5 1024.4 1024.4 0.0
08/07:30pm 10.2 8.6 6.2 76 1.9 WNW 4 6 2 3 1024.2 1024.2 0.0
08/07:00pm 11.6 9.0 6.3 70 2.5 WSW 9 11 5 6 1024.1 1024.1 0.0
08/06:30pm 12.4 9.5 6.5 67 2.8 W 11 15 6 8 1023.9 1023.9 0.0
08/06:00pm 13.3 9.6 6.2 62 3.4 SW 15 19 8 10 1023.7 1023.7 0.0
08/05:30pm 14.4 9.9 6.3 58 3.9 SW 19 24 10 13 1023.5 1023.5 0.0
08/05:00pm 15.4 11.0 6.7 56 4.3 SW 19 26 10 14 1023.2 1023.2 0.0
08/04:30pm 15.8 10.1 6.8 55 4.5 WSW 26 35 14 19 1023.1 1023.1 0.0
08/04:00pm 16.1 11.0 7.8 58 4.2 WSW 24 35 13 19 1023.0 1023.0 0.0
08/03:30pm 16.3 10.9 7.8 57 4.3 WSW 26 35 14 19 1022.9 1022.9 0.0
08/03:00pm 15.7 10.2 7.7 59 4.0 WSW 26 35 14 19 1022.9 1022.9 0.0
08/02:30pm 15.4 9.6 7.9 61 3.8 WSW 28 39 15 21 1022.9 1022.9 0.0
08/02:00pm 15.0 9.2 8.0 63 3.5 WSW 28 35 15 19 1023.0 1023.0 0.0
08/01:30pm 15.2 9.3 7.7 61 3.8 WSW 28 39 15 21 1023.1 1023.1 0.0
08/01:00pm 15.4 9.6 7.9 61 3.8 WSW 28 39 15 21 1023.2 1023.2 0.0
08/12:30pm 15.0 9.1 7.5 61 3.8 WSW 28 37 15 20 1023.5 1023.5 0.0
08/12:00pm 14.5 8.2 7.5 63 3.5 WSW 30 41 16 22 1024.0 1024.0 0.0
08/11:30am 14.4 8.5 7.5 63 3.4 WSW 28 37 15 20 1024.1 1024.1 0.0
08/11:00am 14.2 8.6 7.3 63 3.4 W 26 35 14 19 1024.4 1024.4 0.0
08/10:30am 13.6 8.8 7.2 65 3.2 WSW 22 30 12 16 1024.6 1024.7 0.0
08/10:00am 12.2 7.8 7.3 72 2.4 W 20 26 11 14 1024.7 1024.8 0.0
08/09:30am 11.3 6.9 7.4 77 1.9 WSW 20 28 11 15 1024.9 1025.0 0.0
08/09:00am 10.5 5.9 6.6 77 1.8 W 20 30 11 16 1025.0 1025.1 0.0
08/08:30am 9.6 5.4 5.8 77 1.8 W 17 24 9 13 1024.7 1024.8 0.0
08/08:00am 9.0 5.1 5.2 77 1.7 W 15 19 8 10 1024.6 1024.7 0.0
08/07:30am 8.4 4.8 4.8 78 1.6 W 13 17 7 9 1024.5 1024.6 0.0
08/07:00am 8.1 4.4 4.3 77 1.7 W 13 19 7 10 1024.1 1024.1 0.0
08/06:30am 7.7 3.2 4.1 78 1.6 WSW 17 20 9 11 1023.9 1023.9 0.0
08/06:00am 7.0 1.4 3.6 79 1.5 WSW 22 28 12 15 1023.9 1023.9 0.0
08/05:30am 7.0 1.4 3.4 78 1.5 W 22 28 12 15 1023.8 1023.8 0.0
08/05:00am 7.0 1.8 3.3 77 1.6 W 20 26 11 14 1023.7 1023.7 0.0
08/04:30am 7.2 1.5 3.1 75 1.8 W 22 28 12 15 1023.6 1023.6 0.0
08/04:00am 7.5 2.4 3.0 73 1.9 W 19 28 10 15 1023.7 1023.7 0.0
08/03:30am 7.5 2.2 2.8 72 2.0 W 20 28 11 15 1023.6 1023.6 0.0
08/03:00am 7.8 2.4 2.7 70 2.2 W 20 28 11 15 1023.6 1023.6 0.0
08/02:30am 7.8 2.4 2.5 69 2.2 W 20 28 11 15 1023.7 1023.7 0.0
08/02:00am 7.7 2.5 2.4 69 2.2 W 19 26 10 14 1024.1 1024.1 0.0
08/01:30am 6.9 2.3 1.8 70 2.1 W 15 20 8 11 1024.1 1024.1 0.0
08/01:00am 6.7 2.5 1.8 71 2.0 W 13 17 7 9 1024.3 1024.3 0.0
08/12:30am 6.9 2.3 1.8 70 2.1 W 15 19 8 10 1024.7 1024.8 0.0
08/12:00am 6.1 1.9 1.4 72 1.9 W 13 17 7 9 1024.9 1025.0 0.0
 
Date/Time
EST
Temp
°C
App
Temp
°C
Dew
Point
°C
Rel
Hum
%
Delta-T
°C
Wind Press
QNH
hPa
Press
MSL
hPa
Rain since
9am
mm
Dir  Spd
km/h
Gust
km/h
Spd
kts
Gust
kts
07/11:30pm 6.1 2.2 1.2 71 2.0 W 11 15 6 8 1024.9 1025.0 0.0
07/11:00pm 6.5 2.2 1.0 68 2.2 W 13 15 7 8 1024.9 1025.0 0.0
07/10:30pm 7.2 2.2 1.3 66 2.4 W 17 22 9 12 1024.9 1025.0 0.0
07/10:00pm 7.0 2.3 1.1 66 2.4 W 15 17 8 9 1025.0 1025.1 0.0
07/09:30pm 7.1 2.8 1.0 65 2.5 WSW 13 17 7 9 1025.0 1025.1 0.0
07/09:00pm 7.3 3.0 1.0 64 2.5 WSW 13 17 7 9 1024.7 1024.8 0.0
07/08:30pm 7.3 3.0 1.0 64 2.6 W 13 17 7 9 1024.8 1024.9 0.0
07/08:00pm 7.3 2.9 0.5 62 2.7 WSW 13 15 7 8 1024.6 1024.7 0.0
07/07:30pm 7.7 3.3 0.4 60 2.9 W 13 17 7 9 1024.4 1024.4 0.0
07/07:00pm 7.3 3.3 0.3 61 2.8 W 11 13 6 7 1024.3 1024.3 0.0
07/06:30pm 8.6 4.1 -0.2 54 3.5 WSW 13 15 7 8 1024.2 1024.2 0.0
07/06:00pm 9.3 4.4 -0.6 50 3.9 SW 15 20 8 11 1023.9 1023.9 0.0
07/05:30pm 9.9 3.7 -0.6 48 4.2 SW 22 32 12 17 1023.5 1023.5 0.0
07/05:00pm 11.0 3.2 -1.1 43 4.8 SW 30 39 16 21 1023.1 1023.1 0.0
07/04:30pm 11.4 3.0 -1.0 42 5.0 SW 33 43 18 23 1022.8 1022.8 0.0
07/04:00pm 12.0 3.7 -1.5 39 5.4 SW 32 46 17 25 1022.5 1022.5 0.0
07/03:30pm 11.8 3.9 -1.3 40 5.3 SW 30 41 16 22 1022.5 1022.5 0.0
07/03:00pm 12.1 3.6 -2.1 37 5.6 SW 33 44 18 24 1022.5 1022.5 0.0
07/02:30pm 12.8 4.9 -1.5 37 5.8 SW 30 41 16 22 1022.4 1022.4 0.0
07/02:16pm 13.2 5.3 -1.5 36 6.0 SW 30 50 16 27 1022.3 1022.3 0.0
07/02:00pm 13.1 4.9 -0.9 38 5.7 SW 32 44 17 24 1022.2 1022.2 0.0
07/01:30pm 12.9 5.3 0.3 42 5.3 SW 30 43 16 23 1022.1 1022.1 0.0
07/01:00pm 12.9 4.7 0.6 43 5.2 SW 33 46 18 25 1022.4 1022.4 0.0
07/12:30pm 11.7 3.6 0.8 47 4.6 SW 33 44 18 24 1022.5 1022.5 0.0
07/12:00pm 10.6 1.9 -0.2 47 4.4 SW 35 46 19 25 1022.7 1022.7 0.0
07/11:30am 10.8 2.8 0.5 49 4.3 SW 32 43 17 23 1023.0 1023.0 0.0
07/11:00am 10.8 3.3 1.1 51 4.1 SW 30 44 16 24 1022.8 1022.8 0.0
07/10:30am 10.1 3.5 2.0 57 3.5 WSW 26 33 14 18 1022.8 1022.8 0.0
07/10:00am 9.6 1.5 1.3 56 3.5 WSW 33 46 18 25 1022.7 1022.7 0.0
07/09:30am 8.8 0.5 1.9 62 2.9 WSW 35 46 19 25 1022.5 1022.5 0.0
07/09:00am 8.4 0.4 1.8 63 2.8 SW 33 44 18 24 1022.2 1022.2 0.2
07/08:30am 7.8 0.9 2.7 70 2.2 WSW 28 35 15 19 1021.8 1021.8 0.2
07/08:00am 7.3 2.2 3.2 75 1.7 WSW 19 28 10 15 1021.5 1021.5 0.2
07/07:30am 6.8 0.6 2.1 72 2.0 SW 24 33 13 18 1020.8 1020.8 0.2
07/07:00am 7.0 1.5 3.8 80 1.4 WSW 22 35 12 19 1020.3 1020.3 0.2
07/06:30am 7.5 1.3 4.5 81 1.3 WSW 26 35 14 19 1019.7 1019.7 0.2
07/06:00am 8.0 2.4 5.3 83 1.2 WSW 24 33 13 18 1019.3 1019.3 0.2
07/05:30am 8.6 3.2 6.4 86 1.0 WSW 24 32 13 17 1019.1 1019.1 0.2
07/05:05am 9.9 4.2 8.2 89 0.8 WSW 28 48 15 26 1018.7 1018.7 0.2
07/05:00am 10.3 4.7 8.9 91 0.7 WSW 28 37 15 20 1018.5 1018.5 0.2
07/04:30am 10.2 6.3 9.3 94 0.5 W 20 30 11 16 1018.3 1018.3 0.2
07/04:00am 10.1 6.1 9.2 94 0.5 W 20 30 11 16 1018.3 1018.3 0.2
07/03:30am 10.4 6.6 7.6 83 1.4 W 17 24 9 13 1018.4 1018.4 0.0
07/03:00am 9.7 6.4 6.4 80 1.6 WNW 13 19 7 10 1018.2 1018.2 0.0
07/02:30am 9.9 6.6 6.6 80 1.6 NW 13 17 7 9 1018.5 1018.5 0.0
07/02:00am 8.9 6.3 6.2 83 1.3 NNW 9 13 5 7 1018.7 1018.7 0.0
07/01:30am 9.2 6.3 6.3 82 1.4 NW 11 17 6 9 1018.8 1018.8 0.0
07/01:00am 8.7 6.5 6.0 83 1.2 NW 7 9 4 5 1019.1 1019.1 0.0
07/12:30am 8.8 6.2 5.9 82 1.3 WNW 9 13 5 7 1019.4 1019.4 0.0
07/12:00am 9.5 6.9 6.0 79 1.6 WNW 9 13 5 7 1019.5 1019.5 0.0
 
Date/Time
EST
Temp
°C
App
Temp
°C
Dew
Point
°C
Rel
Hum
%
Delta-T
°C
Wind Press
QNH
hPa
Press
MSL
hPa
Rain since
9am
mm
Dir  Spd
km/h
Gust
km/h
Spd
kts
Gust
kts
06/11:30pm 8.8 5.9 6.3 84 1.2 WNW 11 15 6 8 1019.8 1019.8 0.0
06/11:00pm 9.2 6.6 5.9 80 1.5 WNW 9 13 5 7 1019.7 1019.7 0.0
06/10:30pm 9.1 6.5 6.2 82 1.4 WNW 9 13 5 7 1020.1 1020.1 0.0
06/10:00pm 9.1 6.6 6.4 83 1.3 WNW 9 11 5 6 1020.4 1020.4 0.0
06/09:30pm 8.6 6.0 6.2 85 1.1 WNW 9 13 5 7 1020.4 1020.4 0.0
06/09:00pm 9.0 6.8 6.1 82 1.3 WNW 7 7 4 4 1020.4 1020.4 0.0
06/08:30pm 10.3 8.4 6.8 79 1.7 WNW 6 7 3 4 1020.5 1020.5 0.0
06/08:00pm 11.9 9.0 6.6 70 2.5 W 11 13 6 7 1020.3 1020.3 0.0
06/07:30pm 12.7 9.6 7.2 69 2.7 WSW 13 19 7 10 1020.4 1020.4 0.0
06/07:00pm 12.3 8.8 7.2 71 2.5 WSW 15 20 8 11 1020.3 1020.3 0.0
06/06:30pm 12.2 9.4 7.1 71 2.5 WSW 11 13 6 7 1020.2 1020.2 0.0

Other formats

Comma delimited format used in spreadsheet applications
http://www.bom.gov.au/fwo/IDN60801/IDN60801.95709.axf

JavaScript Object Notation format (JSON) in row-major order
http://www.bom.gov.au/fwo/IDN60801/IDN60801.95709.json

Data quality

Most of these data are generated automatically and are frequently updated. Quality checks on data are not normally performed. It is possible for incorrect values to appear. Refer to information at About Latest Weather Observations and please check the disclaimer before using these data.